createdAt,value
2022-11-22T00:00:44.358Z,175.20
2022-11-22T00:03:18.812Z,159.32
2022-11-22T00:05:46.063Z,172.27
2022-11-22T00:08:13.633Z,202.52
2022-11-22T00:10:41.059Z,171.20
2022-11-22T00:13:08.911Z,194.85
2022-11-22T00:15:36.539Z,179.85
2022-11-22T00:18:04.275Z,173.90
2022-11-22T00:20:31.450Z,178.70
2022-11-22T00:22:59.798Z,192.90
2022-11-22T00:25:28.001Z,180.40
2022-11-22T00:27:55.940Z,189.80
2022-11-22T00:30:23.604Z,178.90
2022-11-22T00:32:51.683Z,170.52
2022-11-22T00:35:18.993Z,195.10
2022-11-22T00:37:47.557Z,191.13
2022-11-22T00:40:15.581Z,213.93
2022-11-22T00:42:43.196Z,202.10
2022-11-22T00:45:10.755Z,189.10
2022-11-22T00:47:41.467Z,169.70
2022-11-22T00:50:10.341Z,201.60
2022-11-22T00:52:37.778Z,185.20
2022-11-22T00:55:05.364Z,173.05
2022-11-22T00:57:32.986Z,177.27
2022-11-22T01:00:00.330Z,164.82
2022-11-22T01:02:28.112Z,173.75
2022-11-22T01:04:55.337Z,175.48
2022-11-22T01:07:23.026Z,175.52
2022-11-22T01:09:50.663Z,177.38
2022-11-22T01:12:18.519Z,150.18
2022-11-22T01:14:45.795Z,147.68
2022-11-22T01:17:13.362Z,162.13
2022-11-22T01:19:40.661Z,153.60
2022-11-22T01:22:08.166Z,148.77
2022-11-22T01:24:35.577Z,152.55
2022-11-22T01:27:03.224Z,161.30
2022-11-22T01:29:30.648Z,145.35
2022-11-22T01:31:58.507Z,151.30
2022-11-22T01:34:25.861Z,143.07
2022-11-22T01:36:53.453Z,152.75
2022-11-22T01:39:20.712Z,150.43
2022-11-22T01:41:48.285Z,150.38
2022-11-22T01:44:30.968Z,142.15
2022-11-22T01:47:24.084Z,138.38
2022-11-22T01:50:07.690Z,111.60
2022-11-22T01:52:35.611Z,104.00
2022-11-22T01:55:07.501Z,112.85
2022-11-22T01:57:39.510Z,103.80
2022-11-22T02:00:10.166Z,106.65
2022-11-22T02:02:46.996Z,96.68
2022-11-22T02:05:18.400Z,96.55
2022-11-22T02:07:59.489Z,89.45
2022-11-22T02:10:29.542Z,98.03
2022-11-22T02:12:59.867Z,105.28
2022-11-22T02:15:27.054Z,106.55
2022-11-22T02:17:57.468Z,95.07
2022-11-22T02:20:24.869Z,95.53
2022-11-22T02:23:08.795Z,111.75
2022-11-22T02:25:42.168Z,120.03
2022-11-22T02:28:12.038Z,116.22
2022-11-22T02:30:42.139Z,119.82
2022-11-22T02:33:10.317Z,123.32
2022-11-22T02:35:37.581Z,107.18
2022-11-22T02:38:13.197Z,117.60
2022-11-22T02:40:50.181Z,116.60
2022-11-22T02:43:20.812Z,104.28
2022-11-22T02:45:48.295Z,97.97
2022-11-22T02:48:18.134Z,90.05
2022-11-22T02:50:45.898Z,100.43
2022-11-22T02:53:14.202Z,86.18
2022-11-22T02:55:43.334Z,84.45
2022-11-22T02:58:11.004Z,89.32
2022-11-22T03:00:39.443Z,64.53
2022-11-22T03:03:07.042Z,76.55
2022-11-22T03:05:34.379Z,81.32
2022-11-22T03:08:01.845Z,83.95
2022-11-22T03:10:29.071Z,86.35
2022-11-22T03:12:58.278Z,76.32
2022-11-22T03:15:25.765Z,70.13
2022-11-22T03:18:01.046Z,70.85
2022-11-22T03:20:29.143Z,75.40
2022-11-22T03:22:57.359Z,87.43
2022-11-22T03:25:24.597Z,85.07
2022-11-22T03:27:52.132Z,81.05
2022-11-22T03:30:19.444Z,94.20
2022-11-22T03:32:47.017Z,96.88
2022-11-22T03:35:14.257Z,93.45
2022-11-22T03:37:41.978Z,88.20
2022-11-22T03:40:09.651Z,90.22
2022-11-22T03:42:37.221Z,90.80
2022-11-22T03:45:04.826Z,94.65
2022-11-22T03:47:32.385Z,63.65
2022-11-22T03:49:59.655Z,53.72
2022-11-22T03:52:27.242Z,41.20
2022-11-22T03:54:54.453Z,49.35
2022-11-22T03:57:22.016Z,61.00
2022-11-22T03:59:49.278Z,49.85
2022-11-22T04:02:17.352Z,59.63
2022-11-22T04:04:44.627Z,83.15
2022-11-22T04:07:12.228Z,261.10
2022-11-22T04:09:39.448Z,278.80
2022-11-22T04:12:07.097Z,228.05
2022-11-22T04:14:52.951Z,165.43
2022-11-22T04:17:40.502Z,201.68
2022-11-22T04:20:29.889Z,259.63
2022-11-22T04:22:58.238Z,264.65
2022-11-22T04:25:30.317Z,184.75
2022-11-22T04:27:58.581Z,215.18
2022-11-22T04:30:46.844Z,274.92
2022-11-22T04:33:15.667Z,123.47
2022-11-22T04:35:44.290Z,181.15
2022-11-22T04:38:12.817Z,266.83
2022-11-22T04:40:40.907Z,214.63
2022-11-22T04:43:33.614Z,223.65
2022-11-22T04:46:02.479Z,223.60
2022-11-22T04:48:30.018Z,239.35
2022-11-22T04:51:16.070Z,219.30
2022-11-22T04:53:44.675Z,183.70
2022-11-22T04:56:12.731Z,277.95
2022-11-22T04:58:40.366Z,338.40
2022-11-22T05:01:07.944Z,301.85
2022-11-22T05:03:35.694Z,311.30
2022-11-22T05:06:04.557Z,338.92
2022-11-22T05:08:32.259Z,303.40
2022-11-22T05:11:02.433Z,202.65
2022-11-22T05:13:32.901Z,164.32
2022-11-22T05:16:01.782Z,252.85
2022-11-22T05:18:30.022Z,164.70
2022-11-22T05:20:57.361Z,141.65
2022-11-22T05:23:43.500Z,123.57
2022-11-22T05:26:11.538Z,86.65
2022-11-22T05:28:39.774Z,77.60
2022-11-22T05:31:16.648Z,67.53
2022-11-22T05:33:47.682Z,60.67
2022-11-22T05:36:14.926Z,67.35
2022-11-22T05:38:42.635Z,71.05
2022-11-22T05:41:12.622Z,70.63
2022-11-22T05:43:40.740Z,78.60
2022-11-22T05:46:14.014Z,73.50
2022-11-22T05:48:43.988Z,80.72
2022-11-22T05:51:14.066Z,81.55
2022-11-22T05:53:43.252Z,163.52
2022-11-22T05:56:22.017Z,201.07
2022-11-22T05:58:50.576Z,238.30
2022-11-22T06:01:20.596Z,223.50
2022-11-22T06:03:48.744Z,146.88
2022-11-22T06:06:16.577Z,151.82
2022-11-22T06:08:48.085Z,165.65
2022-11-22T06:11:23.561Z,94.75
2022-11-22T06:13:56.642Z,113.72
2022-11-22T06:16:24.791Z,80.47
2022-11-22T06:18:53.869Z,65.22
2022-11-22T06:21:23.927Z,67.90
2022-11-22T06:23:55.322Z,78.93
2022-11-22T06:26:24.703Z,59.75
2022-11-22T06:28:52.749Z,87.35
2022-11-22T06:31:22.943Z,133.38
2022-11-22T06:33:51.412Z,132.70
2022-11-22T06:36:21.440Z,100.75
2022-11-22T06:38:52.000Z,80.38
2022-11-22T06:41:32.591Z,83.88
2022-11-22T06:44:00.260Z,93.95
2022-11-22T06:46:27.803Z,82.85
2022-11-22T06:48:55.486Z,77.07
2022-11-22T06:51:25.803Z,211.27
2022-11-22T06:53:56.703Z,253.30
2022-11-22T06:56:30.081Z,401.40
2022-11-22T06:58:57.880Z,339.10
2022-11-22T07:01:27.886Z,284.00
2022-11-22T07:03:58.716Z,194.13
2022-11-22T07:06:28.693Z,217.82
2022-11-22T07:08:56.673Z,262.10
2022-11-22T07:11:25.853Z,289.23
2022-11-22T07:13:55.262Z,310.33
2022-11-22T07:16:23.104Z,173.30
2022-11-22T07:18:51.134Z,173.95
2022-11-22T07:21:21.379Z,111.03
2022-11-22T07:23:50.732Z,124.43
2022-11-22T07:26:19.456Z,135.13
2022-11-22T07:28:47.500Z,147.30
2022-11-22T07:31:16.758Z,131.60
2022-11-22T07:33:44.784Z,125.97
2022-11-22T07:36:17.843Z,91.30
2022-11-22T07:38:45.972Z,60.85
2022-11-22T07:41:13.117Z,65.03
2022-11-22T07:43:40.965Z,58.25
2022-11-22T07:46:16.208Z,63.75
2022-11-22T07:48:44.028Z,55.53
2022-11-22T07:51:11.260Z,45.63
2022-11-22T07:53:38.900Z,33.40
2022-11-22T07:56:07.317Z,28.45
2022-11-22T07:58:35.678Z,22.52
2022-11-22T08:01:13.106Z,19.08
2022-11-22T08:03:41.550Z,29.05
2022-11-22T08:06:10.924Z,27.85
2022-11-22T08:08:38.850Z,26.50
2022-11-22T08:11:07.208Z,30.45
2022-11-22T08:13:35.247Z,49.90
2022-11-22T08:16:11.340Z,46.22
2022-11-22T08:18:40.079Z,47.70
2022-11-22T08:21:10.067Z,39.90
2022-11-22T08:23:38.356Z,41.60
2022-11-22T08:26:06.733Z,36.65
2022-11-22T08:28:34.704Z,78.60
2022-11-22T08:31:05.005Z,78.80
2022-11-22T08:33:32.708Z,46.10
2022-11-22T08:36:00.067Z,45.80
2022-11-22T08:38:27.872Z,41.53
2022-11-22T08:40:55.534Z,48.20
2022-11-22T08:43:23.395Z,44.72
2022-11-22T08:45:56.271Z,39.35
2022-11-22T08:48:28.437Z,20.50
2022-11-22T08:50:58.348Z,16.23
2022-11-22T08:53:27.566Z,15.40
2022-11-22T08:55:55.087Z,16.05
2022-11-22T08:58:23.543Z,19.25
2022-11-22T09:00:50.937Z,24.38
2022-11-22T09:03:18.493Z,44.20
2022-11-22T09:08:36.288Z,43.65
2022-11-22T09:11:08.952Z,45.13
2022-11-22T09:13:36.916Z,44.40
2022-11-22T09:16:06.506Z,39.97
2022-11-22T09:18:34.653Z,41.42
2022-11-22T09:21:07.792Z,41.35
2022-11-22T09:23:36.116Z,40.53
2022-11-22T09:26:12.422Z,36.65
2022-11-22T09:28:40.247Z,41.28
2022-11-22T09:31:17.041Z,42.78
2022-11-22T09:33:45.673Z,51.03
2022-11-22T09:36:15.111Z,37.47
2022-11-22T09:38:42.958Z,35.33
2022-11-22T09:41:16.326Z,42.25
2022-11-22T09:43:56.250Z,31.77
2022-11-22T09:46:54.143Z,34.50
2022-11-22T09:49:56.110Z,29.45
2022-11-22T09:52:58.827Z,31.20
2022-11-22T09:55:45.636Z,35.05
2022-11-22T09:58:23.209Z,24.88
2022-11-22T10:00:52.436Z,28.63
2022-11-22T10:03:40.931Z,32.25
2022-11-22T10:06:17.351Z,32.50
2022-11-22T10:11:36.717Z,35.05
2022-11-22T10:14:44.886Z,31.92
2022-11-22T10:17:23.834Z,29.63
2022-11-22T10:20:06.728Z,27.55
2022-11-22T10:22:35.682Z,30.15
2022-11-22T10:25:13.796Z,35.75
2022-11-22T10:27:43.181Z,26.05
2022-11-22T10:30:15.398Z,35.78
2022-11-22T10:33:19.003Z,37.58
2022-11-22T10:36:04.697Z,31.15
2022-11-22T10:38:40.972Z,16.75
2022-11-22T10:41:17.926Z,17.53
2022-11-22T10:44:13.097Z,13.02
2022-11-22T10:46:56.965Z,9.77
2022-11-22T10:49:44.620Z,12.80
2022-11-22T10:52:26.703Z,8.50
2022-11-22T10:54:58.000Z,9.38
2022-11-22T10:58:03.226Z,13.80
2022-11-22T11:00:36.360Z,11.05
2022-11-22T11:03:38.359Z,11.50
2022-11-22T11:06:29.515Z,22.65
2022-11-22T11:10:09.174Z,12.40
2022-11-22T11:12:31.514Z,13.93
2022-11-22T11:15:20.752Z,13.18
2022-11-22T11:18:04.481Z,12.88
2022-11-22T11:20:39.499Z,10.63
2022-11-22T11:23:15.243Z,10.77
2022-11-22T11:25:46.114Z,17.15
2022-11-22T11:28:19.419Z,12.82
2022-11-22T11:30:50.973Z,11.07
2022-11-22T11:33:24.212Z,17.65
2022-11-22T11:35:56.105Z,17.27
2022-11-22T11:38:42.544Z,14.73
2022-11-22T11:41:31.422Z,14.57
2022-11-22T11:44:01.939Z,16.35
2022-11-22T11:46:48.766Z,18.23
2022-11-22T11:49:18.693Z,18.10
2022-11-22T11:51:48.665Z,14.80
2022-11-22T11:54:42.049Z,15.93
2022-11-22T11:57:16.287Z,22.85
2022-11-22T11:59:47.321Z,16.40
2022-11-22T12:02:20.177Z,17.60
2022-11-22T12:04:47.927Z,19.25
2022-11-22T12:07:26.283Z,18.45
2022-11-22T12:09:55.981Z,32.38
2022-11-22T12:12:40.637Z,18.35
2022-11-22T12:15:32.631Z,25.38
2022-11-22T12:18:12.622Z,25.90
2022-11-22T12:20:53.119Z,46.00
2022-11-22T12:23:50.702Z,19.15
2022-11-22T12:26:20.696Z,18.55
2022-11-22T12:28:48.938Z,33.22
2022-11-22T12:31:37.119Z,21.92
2022-11-22T12:34:36.043Z,19.67
2022-11-22T12:37:11.320Z,16.13
2022-11-22T12:39:39.086Z,33.60
2022-11-22T12:42:23.226Z,15.40
2022-11-22T12:45:02.893Z,16.05
2022-11-22T12:47:36.060Z,15.05
2022-11-22T12:50:21.358Z,25.27
2022-11-22T12:52:55.709Z,22.38
2022-11-22T12:55:30.779Z,15.65
2022-11-22T12:58:09.536Z,19.83
2022-11-22T13:00:42.673Z,36.47
2022-11-22T13:03:20.118Z,28.15
2022-11-22T13:05:55.402Z,15.82
2022-11-22T13:08:42.691Z,16.60
2022-11-22T13:11:58.177Z,15.05
2022-11-22T13:14:36.696Z,18.08
2022-11-22T13:17:12.220Z,15.00
2022-11-22T13:19:57.349Z,18.88
2022-11-22T13:22:46.115Z,19.15
2022-11-22T13:25:27.257Z,17.17
2022-11-22T13:27:59.102Z,23.08
2022-11-22T13:30:29.852Z,26.85
2022-11-22T13:32:59.688Z,21.55
2022-11-22T13:35:36.100Z,14.82
2022-11-22T13:38:07.295Z,16.30
2022-11-22T13:40:39.398Z,15.07
2022-11-22T13:43:21.853Z,17.85
2022-11-22T13:45:54.070Z,18.60
2022-11-22T13:48:39.748Z,23.02
2022-11-22T13:51:08.656Z,25.67
2022-11-22T13:53:38.140Z,31.90
2022-11-22T13:56:26.034Z,26.88
2022-11-22T13:59:13.150Z,32.72
2022-11-22T14:01:40.890Z,26.42
2022-11-22T14:04:17.559Z,34.65
2022-11-22T14:06:54.248Z,34.78
2022-11-22T14:09:33.860Z,38.08
2022-11-22T14:12:12.864Z,34.00
2022-11-22T14:15:01.723Z,25.60
2022-11-22T14:17:54.261Z,34.92
2022-11-22T14:21:07.718Z,33.58
2022-11-22T14:24:12.641Z,27.00
2022-11-22T14:26:45.651Z,21.63
2022-11-22T14:29:53.492Z,22.15
2022-11-22T14:32:24.909Z,20.20
2022-11-22T14:35:04.689Z,24.55
2022-11-22T14:37:32.118Z,21.63
2022-11-22T14:40:06.947Z,19.13
2022-11-22T14:42:40.270Z,23.52
2022-11-22T14:45:11.665Z,45.15
2022-11-22T14:47:45.864Z,47.55
2022-11-22T14:50:29.214Z,61.00
2022-11-22T14:53:00.099Z,53.33
2022-11-22T14:55:34.120Z,36.22
2022-11-22T14:58:05.738Z,50.70
2022-11-22T15:01:12.201Z,48.83
2022-11-22T15:09:12.790Z,55.10
2022-11-22T15:09:17.050Z,61.15
2022-11-22T15:09:53.952Z,43.95
2022-11-22T15:12:41.474Z,51.60
2022-11-22T15:59:41.967Z,156.98
2022-11-22T16:02:17.411Z,69.60
2022-11-22T16:06:08.698Z,56.28
2022-11-22T16:08:07.451Z,52.50
2022-11-22T16:10:40.466Z,76.28
2022-11-22T16:13:26.798Z,68.72
2022-11-22T16:16:13.083Z,91.78
2022-11-22T16:18:44.616Z,119.72
2022-11-22T16:21:12.739Z,88.00
2022-11-22T16:23:46.372Z,92.57
2022-11-22T16:26:29.911Z,75.97
2022-11-22T16:29:19.955Z,67.50
2022-11-22T16:31:48.992Z,54.10
2022-11-22T16:34:18.167Z,61.30
2022-11-22T16:36:46.741Z,57.33
2022-11-22T16:39:14.520Z,72.68
2022-11-22T16:41:46.094Z,62.60
2022-11-22T16:44:20.730Z,54.38
2022-11-22T16:46:49.178Z,140.15
2022-11-22T16:49:19.462Z,78.28
2022-11-22T16:51:54.815Z,74.90
2022-11-22T16:54:24.031Z,83.47
2022-11-22T16:56:51.922Z,69.47
2022-11-22T16:59:19.368Z,96.38
2022-11-22T17:01:49.217Z,74.22
2022-11-22T17:04:23.542Z,117.38
2022-11-22T17:06:52.653Z,54.63
2022-11-22T17:09:20.797Z,52.45
2022-11-22T17:11:51.597Z,57.08
2022-11-22T17:14:23.322Z,56.67
2022-11-22T17:16:54.670Z,65.40
2022-11-22T17:19:52.845Z,79.80
2022-11-22T17:22:16.284Z,112.28
2022-11-22T17:24:44.111Z,77.07
2022-11-22T17:27:21.115Z,86.93
2022-11-22T17:29:50.932Z,90.05
2022-11-22T17:32:22.252Z,102.13
2022-11-22T17:34:50.347Z,98.30
2022-11-22T17:37:18.444Z,115.68
2022-11-22T17:39:47.118Z,105.47
2022-11-22T17:42:18.754Z,72.97
2022-11-22T17:44:46.657Z,71.40
2022-11-22T17:47:15.336Z,76.20
2022-11-22T17:49:43.309Z,79.22
2022-11-22T17:52:11.697Z,88.35
2022-11-22T17:54:40.396Z,94.43
2022-11-22T17:57:08.151Z,96.82
2022-11-22T17:59:35.842Z,90.82
2022-11-22T18:02:03.845Z,92.82
2022-11-22T18:04:32.215Z,78.95
2022-11-22T18:07:00.497Z,102.85
2022-11-22T18:09:29.195Z,99.80
2022-11-22T18:11:58.341Z,87.97
2022-11-22T18:14:27.910Z,73.72
2022-11-22T18:16:55.721Z,65.22
2022-11-22T18:19:23.572Z,109.45
2022-11-22T18:21:52.106Z,104.10
2022-11-22T18:24:19.528Z,79.88
2022-11-22T18:26:47.597Z,92.80
2022-11-22T18:32:05.424Z,103.60
2022-11-22T18:34:34.776Z,118.13
2022-11-22T18:37:05.078Z,100.28
2022-11-22T18:39:38.472Z,99.03
2022-11-22T18:42:13.382Z,110.20
2022-11-22T18:44:41.047Z,121.57
2022-11-22T18:47:09.301Z,109.43
2022-11-22T18:49:37.057Z,105.50
2022-11-22T18:52:06.520Z,144.43
2022-11-22T18:54:35.133Z,276.63
2022-11-22T18:57:03.313Z,288.33
2022-11-22T18:59:31.520Z,276.95
2022-11-22T19:01:59.410Z,344.73
2022-11-22T19:04:27.001Z,333.05
2022-11-22T19:06:55.746Z,306.90
2022-11-22T19:09:25.748Z,295.98
2022-11-22T19:11:58.692Z,309.33
2022-11-22T19:14:29.207Z,365.55
2022-11-22T19:16:57.354Z,314.77
2022-11-22T19:19:25.429Z,316.42
2022-11-22T19:21:52.938Z,375.48
2022-11-22T19:24:20.975Z,347.27
2022-11-22T19:26:48.820Z,301.85
2022-11-22T19:29:17.013Z,248.48
2022-11-22T19:31:45.159Z,237.02
2022-11-22T19:34:12.930Z,195.10
2022-11-22T19:36:40.952Z,248.60
2022-11-22T19:39:13.653Z,271.27
2022-11-22T19:41:42.911Z,333.38
2022-11-22T19:44:10.937Z,293.80
2022-11-22T19:46:39.845Z,315.75
2022-11-22T19:49:07.485Z,299.33
2022-11-22T19:51:36.509Z,278.80
2022-11-22T19:54:04.565Z,285.58
2022-11-22T19:56:35.551Z,378.92
2022-11-22T19:59:05.978Z,489.55
2022-11-22T20:01:35.190Z,464.55
2022-11-22T20:04:05.723Z,434.80
2022-11-22T20:06:35.780Z,375.05
2022-11-22T20:09:11.044Z,320.30
2022-11-22T20:11:40.416Z,287.90
2022-11-22T20:14:09.680Z,223.02
2022-11-22T20:16:41.882Z,226.18
2022-11-22T20:19:12.580Z,246.65
2022-11-22T20:21:41.367Z,299.27
2022-11-22T20:24:09.362Z,303.95
2022-11-22T20:26:37.503Z,335.75
2022-11-22T20:29:07.266Z,384.40
2022-11-22T20:31:37.502Z,423.08
2022-11-22T20:34:05.541Z,388.05
2022-11-22T20:36:35.451Z,321.65
2022-11-22T20:39:09.826Z,297.70
2022-11-22T20:41:40.551Z,257.95
2022-11-22T20:44:12.761Z,248.65
2022-11-22T20:46:41.535Z,251.05
2022-11-22T20:49:09.086Z,239.68
2022-11-22T20:51:39.958Z,255.32
2022-11-22T20:54:07.988Z,237.70
2022-11-22T20:56:37.982Z,254.07
2022-11-22T20:59:05.459Z,240.43
2022-11-22T21:01:33.767Z,244.00
2022-11-22T21:04:01.503Z,246.05
2022-11-22T21:06:29.721Z,230.23
2022-11-22T21:08:57.235Z,234.70
2022-11-22T21:11:28.862Z,253.75
2022-11-22T21:13:57.926Z,229.57
2022-11-22T21:16:28.197Z,233.60
2022-11-22T21:18:58.296Z,230.32
2022-11-22T21:21:26.330Z,228.68
2022-11-22T21:23:58.521Z,203.45
2022-11-22T21:26:27.086Z,199.27
2022-11-22T21:28:54.709Z,217.43
2022-11-22T21:31:23.549Z,231.73
2022-11-22T21:33:51.767Z,245.20
2022-11-22T21:36:21.292Z,264.35
2022-11-22T21:38:49.054Z,397.13
2022-11-22T21:44:06.878Z,470.48
2022-11-22T21:46:34.463Z,480.15
2022-11-22T21:49:01.686Z,445.85
2022-11-22T21:51:29.332Z,485.95
2022-11-22T21:53:58.111Z,497.17
2022-11-22T21:56:26.359Z,464.42
2022-11-22T21:58:53.744Z,407.52
2022-11-22T22:01:21.462Z,385.52
2022-11-22T22:03:48.719Z,362.73
2022-11-22T22:06:16.300Z,319.98
2022-11-22T22:08:43.556Z,285.30
2022-11-22T22:11:11.836Z,334.70
2022-11-22T22:13:39.110Z,270.63
2022-11-22T22:16:07.485Z,290.83
2022-11-22T22:18:36.909Z,295.98
2022-11-22T22:21:07.434Z,328.60
2022-11-22T22:23:36.386Z,318.25
2022-11-22T22:26:08.813Z,320.17
2022-11-22T22:28:37.990Z,387.48
2022-11-22T22:31:23.189Z,323.98
2022-11-22T22:33:54.354Z,316.17
2022-11-22T22:36:23.707Z,291.40
2022-11-22T22:38:51.182Z,261.83
2022-11-22T22:41:19.131Z,232.25
2022-11-22T22:43:48.489Z,247.45
2022-11-22T22:46:19.890Z,389.98
2022-11-22T22:48:48.572Z,371.38
2022-11-22T22:51:31.642Z,283.27
2022-11-22T22:54:00.949Z,310.90
2022-11-22T22:56:31.091Z,372.83
2022-11-22T22:59:01.083Z,319.27
2022-11-22T23:01:31.451Z,273.67
2022-11-22T23:04:00.487Z,252.18
2022-11-22T23:06:30.780Z,259.15
2022-11-22T23:08:58.993Z,245.60
2022-11-22T23:11:47.671Z,278.23
2022-11-22T23:14:21.294Z,326.70
2022-11-22T23:16:57.075Z,338.73
2022-11-22T23:19:26.619Z,425.30
2022-11-22T23:21:54.998Z,317.75
2022-11-22T23:24:22.531Z,274.08
2022-11-22T23:26:49.772Z,206.70
2022-11-22T23:29:17.461Z,197.52
2022-11-22T23:31:44.858Z,182.50
2022-11-22T23:34:12.612Z,162.32
2022-11-22T23:36:41.157Z,185.52
2022-11-22T23:39:09.575Z,263.23
2022-11-22T23:41:36.967Z,471.05
2022-11-22T23:44:04.592Z,510.08
2022-11-22T23:46:31.975Z,823.28
2022-11-22T23:49:01.066Z,560.40
2022-11-22T23:51:29.617Z,445.02
2022-11-22T23:54:01.887Z,442.27
2022-11-22T23:56:31.220Z,458.38
2022-11-22T23:58:59.984Z,659.40
